createdAt,value
2022-09-21T00:00:53.724Z,101870.88
2022-09-21T00:03:20.579Z,101875.25
2022-09-21T00:05:46.971Z,101870.84
2022-09-21T00:08:14.218Z,101871.72
2022-09-21T00:10:40.861Z,101872.50
2022-09-21T00:13:08.831Z,101869.06
2022-09-21T00:15:35.446Z,101876.06
2022-09-21T00:18:02.127Z,101869.09
2022-09-21T00:20:29.079Z,101864.75
2022-09-21T00:22:55.571Z,101869.16
2022-09-21T00:25:22.016Z,101865.59
2022-09-21T00:27:49.925Z,101867.34
2022-09-21T00:30:16.427Z,101868.19
2022-09-21T00:32:42.880Z,101873.41
2022-09-21T00:35:09.829Z,101874.31
2022-09-21T00:37:36.411Z,101871.66
2022-09-21T00:40:03.776Z,101869.88
2022-09-21T00:42:34.270Z,101874.25
2022-09-21T00:45:01.102Z,101873.31
2022-09-21T00:47:44.749Z,101880.31
2022-09-21T00:50:15.721Z,101880.31
2022-09-21T00:52:51.855Z,101882.88
2022-09-21T00:55:39.680Z,101875.91
2022-09-21T00:58:12.878Z,101881.06
2022-09-21T01:00:40.389Z,101876.69
2022-09-21T01:03:09.230Z,101878.50
2022-09-21T01:05:35.650Z,101879.31
2022-09-21T01:08:05.770Z,101880.22
2022-09-21T01:10:44.649Z,101877.59
2022-09-21T01:13:18.131Z,101879.25
2022-09-21T01:15:47.465Z,101881.00
2022-09-21T01:18:32.234Z,101873.25
2022-09-21T01:21:12.543Z,101883.69
2022-09-21T01:24:08.746Z,101879.34
2022-09-21T01:26:52.125Z,101878.34
2022-09-21T01:29:38.271Z,101887.84
2022-09-21T01:32:07.880Z,101882.59
2022-09-21T01:34:43.487Z,101888.69
2022-09-21T01:37:16.167Z,101886.97
2022-09-21T01:39:47.341Z,101886.03
2022-09-21T01:42:16.319Z,101893.91
2022-09-21T01:44:45.210Z,101892.97
2022-09-21T01:47:14.013Z,101887.75
2022-09-21T01:49:50.233Z,101885.16
2022-09-21T01:52:19.478Z,101884.34
2022-09-21T01:55:01.089Z,101884.34
2022-09-21T01:57:38.598Z,101882.59
2022-09-21T02:00:06.947Z,101888.63
2022-09-21T02:02:50.282Z,101890.44
2022-09-21T02:05:20.095Z,101886.94
2022-09-21T02:07:47.380Z,101884.28
2022-09-21T02:10:21.010Z,101877.28
2022-09-21T02:12:49.190Z,101879.88
2022-09-21T02:15:15.624Z,101879.00
2022-09-21T02:17:48.632Z,101878.13
2022-09-21T02:20:23.171Z,101882.47
2022-09-21T02:23:07.766Z,101878.97
2022-09-21T02:25:45.865Z,101880.72
2022-09-21T02:28:32.400Z,101884.22
2022-09-21T02:31:13.928Z,101883.34
2022-09-21T02:34:18.998Z,101892.03
2022-09-21T02:36:50.722Z,101888.56
2022-09-21T02:39:31.231Z,101889.41
2022-09-21T02:42:16.470Z,101872.88
2022-09-21T02:44:52.349Z,101872.88
2022-09-21T02:47:24.332Z,101880.72
2022-09-21T02:50:10.958Z,101873.69
2022-09-21T02:52:40.868Z,101871.00
2022-09-21T02:55:08.819Z,101870.97
2022-09-21T02:57:37.327Z,101878.78
2022-09-21T03:00:06.148Z,101879.66
2022-09-21T03:02:41.244Z,101881.50
2022-09-21T03:05:08.904Z,101864.88
2022-09-21T03:07:35.719Z,101875.31
2022-09-21T03:10:02.578Z,101869.19
2022-09-21T03:12:29.880Z,101870.88
2022-09-21T03:14:56.347Z,101870.03
2022-09-21T03:17:22.746Z,101869.16
2022-09-21T03:19:49.186Z,101872.63
2022-09-21T03:22:17.060Z,101869.16
2022-09-21T03:24:46.445Z,101874.28
2022-09-21T03:27:18.604Z,101869.91
2022-09-21T03:29:45.748Z,101873.25
2022-09-21T03:32:12.661Z,101876.50
2022-09-21T03:34:39.095Z,101871.38
2022-09-21T03:37:07.435Z,101880.94
2022-09-21T03:39:34.957Z,101877.38
2022-09-21T03:42:02.011Z,101879.94
2022-09-21T03:44:29.443Z,101884.22
2022-09-21T03:46:56.535Z,101886.03
2022-09-21T03:49:22.956Z,101882.50
2022-09-21T03:51:49.363Z,101878.16
2022-09-21T03:54:15.782Z,101880.66
2022-09-21T03:56:42.191Z,101877.22
2022-09-21T03:59:13.177Z,101884.13
2022-09-21T04:01:40.545Z,101880.72
2022-09-21T04:04:07.012Z,101886.88
2022-09-21T04:06:33.955Z,101873.00
2022-09-21T04:09:02.447Z,101877.38
2022-09-21T04:11:30.066Z,101873.88
2022-09-21T04:13:57.063Z,101874.81
2022-09-21T04:16:27.657Z,101874.75
2022-09-21T04:18:54.563Z,101884.31
2022-09-21T04:21:22.186Z,101886.06
2022-09-21T04:23:49.863Z,101888.66
2022-09-21T04:26:32.612Z,101891.25
2022-09-21T04:28:59.871Z,101882.53
2022-09-21T04:31:27.400Z,101884.31
2022-09-21T04:33:55.547Z,101890.31
2022-09-21T04:36:23.715Z,101884.22
2022-09-21T04:38:51.214Z,101900.72
2022-09-21T04:41:18.326Z,101898.13
2022-09-21T04:43:46.435Z,101898.13
2022-09-21T04:46:15.418Z,101895.53
2022-09-21T04:48:42.713Z,101892.00
2022-09-21T04:51:10.048Z,101908.44
2022-09-21T04:53:38.327Z,101901.50
2022-09-21T04:56:06.013Z,101896.28
2022-09-21T04:58:33.415Z,101904.19
2022-09-21T05:01:00.474Z,101902.25
2022-09-21T05:03:27.100Z,101909.97
2022-09-21T05:05:56.418Z,101914.34
2022-09-21T05:08:43.563Z,101909.06
2022-09-21T05:11:13.054Z,101917.78
2022-09-21T05:13:40.551Z,101916.78
2022-09-21T05:16:07.080Z,101917.63
2022-09-21T05:18:33.588Z,101921.88
2022-09-21T05:21:01.874Z,101920.06
2022-09-21T05:23:29.880Z,101922.63
2022-09-21T05:25:57.446Z,101926.28
2022-09-21T05:28:24.230Z,101928.03
2022-09-21T05:31:16.704Z,101926.16
2022-09-21T05:33:52.094Z,101933.09
2022-09-21T05:36:51.816Z,101933.97
2022-09-21T05:39:18.514Z,101947.06
2022-09-21T05:41:45.216Z,101943.66
2022-09-21T05:44:14.397Z,101941.81
2022-09-21T05:46:55.346Z,101943.50
2022-09-21T05:49:32.664Z,101948.00
2022-09-21T05:52:17.830Z,101954.00
2022-09-21T05:55:12.805Z,101954.88
2022-09-21T05:57:51.174Z,101951.56
2022-09-21T06:00:19.149Z,101957.69
2022-09-21T06:02:50.802Z,101962.91
2022-09-21T06:05:17.633Z,101953.34
2022-09-21T06:07:44.085Z,101960.22
2022-09-21T06:10:12.995Z,101971.56
2022-09-21T06:12:40.031Z,101969.88
2022-09-21T06:15:10.644Z,101965.53
2022-09-21T06:17:37.037Z,101969.88
2022-09-21T06:20:03.660Z,101969.06
2022-09-21T06:22:30.096Z,101968.13
2022-09-21T06:24:56.512Z,101976.03
2022-09-21T06:27:22.891Z,101973.44
2022-09-21T06:29:49.280Z,101975.22
2022-09-21T06:32:15.800Z,101983.16
2022-09-21T06:34:42.944Z,101966.66
2022-09-21T06:37:09.389Z,101976.31
2022-09-21T06:39:35.926Z,101972.03
2022-09-21T06:42:02.390Z,101980.78
2022-09-21T06:44:29.860Z,101977.38
2022-09-21T06:46:56.312Z,101975.66
2022-09-21T06:49:22.791Z,101981.78
2022-09-21T06:51:49.318Z,101985.34
2022-09-21T06:54:15.716Z,101989.75
2022-09-21T06:56:43.323Z,101984.59
2022-09-21T06:59:09.780Z,101982.94
2022-09-21T07:01:36.389Z,101981.25
2022-09-21T07:04:03.101Z,101987.41
2022-09-21T07:06:30.034Z,101982.22
2022-09-21T07:11:42.916Z,101983.22
2022-09-21T07:14:09.448Z,101978.94
2022-09-21T07:16:36.070Z,101984.16
2022-09-21T07:19:10.989Z,101979.91
2022-09-21T07:21:38.005Z,101982.59
2022-09-21T07:24:08.235Z,101982.66
2022-09-21T07:26:40.853Z,101991.41
2022-09-21T07:29:07.577Z,101992.28
2022-09-21T07:31:34.221Z,101984.50
2022-09-21T07:34:00.636Z,101978.41
2022-09-21T07:36:27.127Z,101988.06
2022-09-21T07:38:54.219Z,101982.84
2022-09-21T07:41:21.238Z,101982.84
2022-09-21T07:43:47.675Z,101984.59
2022-09-21T07:46:15.420Z,101989.00
2022-09-21T07:48:42.223Z,101980.31
2022-09-21T07:51:11.261Z,101990.78
2022-09-21T07:53:39.749Z,101982.94
2022-09-21T07:56:15.782Z,101982.13
2022-09-21T07:59:01.884Z,101976.91
2022-09-21T08:01:29.392Z,101978.66
2022-09-21T08:03:57.439Z,101984.75
2022-09-21T08:06:25.527Z,101977.84
2022-09-21T08:08:57.245Z,101988.31
2022-09-21T08:11:25.917Z,101982.28
2022-09-21T08:13:53.849Z,101987.56
2022-09-21T08:16:20.328Z,101983.19
2022-09-21T08:18:46.892Z,101985.81
2022-09-21T08:21:13.866Z,101987.56
2022-09-21T08:23:42.858Z,101992.81
2022-09-21T08:26:16.406Z,101990.19
2022-09-21T08:28:43.798Z,101988.50
2022-09-21T08:31:10.789Z,101991.97
2022-09-21T08:33:37.351Z,101994.59
2022-09-21T08:36:04.332Z,101996.34
2022-09-21T08:38:36.069Z,101998.16
2022-09-21T08:41:14.085Z,101991.19
2022-09-21T08:43:43.781Z,101990.38
2022-09-21T08:46:23.272Z,101986.88
2022-09-21T08:49:08.112Z,101990.41
2022-09-21T08:51:38.928Z,101987.81
2022-09-21T08:54:19.326Z,101989.59
2022-09-21T08:57:04.436Z,101989.59
2022-09-21T08:59:31.735Z,101989.59
2022-09-21T09:02:20.422Z,101993.13
2022-09-21T09:04:57.783Z,101991.44
2022-09-21T09:07:39.368Z,101993.13
2022-09-21T09:10:20.282Z,101987.06
2022-09-21T09:12:57.729Z,101986.25
2022-09-21T09:15:35.978Z,101997.56
2022-09-21T09:18:14.982Z,101991.50
2022-09-21T09:20:47.620Z,101997.63
2022-09-21T09:23:52.738Z,101994.13
2022-09-21T09:26:30.453Z,101984.59
2022-09-21T09:29:06.317Z,101988.97
2022-09-21T09:31:35.900Z,101982.84
2022-09-21T09:34:11.371Z,101988.97
2022-09-21T09:36:57.799Z,101990.72
2022-09-21T09:39:25.899Z,101988.16
2022-09-21T09:42:43.187Z,101982.91
2022-09-21T09:45:34.791Z,101979.44
2022-09-21T09:48:33.626Z,101989.94
2022-09-21T09:51:00.266Z,101980.31
2022-09-21T09:53:27.653Z,101982.09
2022-09-21T09:55:56.900Z,101977.72
2022-09-21T09:58:34.380Z,101980.38
2022-09-21T10:01:00.811Z,101970.75
2022-09-21T10:03:28.027Z,101976.91
2022-09-21T10:05:55.066Z,101969.94
2022-09-21T10:08:36.804Z,101976.91
2022-09-21T10:11:04.157Z,101973.44
2022-09-21T10:13:33.655Z,101981.28
2022-09-21T10:16:02.063Z,101979.53
2022-09-21T10:18:38.186Z,101972.53
2022-09-21T10:21:18.652Z,101972.50
2022-09-21T10:24:16.609Z,101971.59
2022-09-21T10:26:49.845Z,101968.97
2022-09-21T10:29:22.237Z,101969.81
2022-09-21T10:32:02.142Z,101957.47
2022-09-21T10:34:31.462Z,101970.56
2022-09-21T10:37:00.559Z,101965.34
2022-09-21T10:39:34.336Z,101962.84
2022-09-21T10:42:12.178Z,101968.09
2022-09-21T10:44:43.822Z,101962.88
2022-09-21T10:47:22.888Z,101958.50
2022-09-21T10:49:58.703Z,101955.00
2022-09-21T10:52:33.240Z,101953.25
2022-09-21T10:55:00.105Z,101959.34
2022-09-21T10:57:28.900Z,101951.47
2022-09-21T10:59:57.286Z,101945.31
2022-09-21T11:02:31.355Z,101954.09
2022-09-21T11:05:21.632Z,101952.31
2022-09-21T11:07:56.845Z,101942.59
2022-09-21T11:10:44.258Z,101941.66
2022-09-21T11:13:28.959Z,101950.41
2022-09-21T11:16:47.946Z,101943.38
2022-09-21T11:19:58.897Z,101941.66
2022-09-21T11:22:37.519Z,101946.97
2022-09-21T11:25:32.433Z,101951.38
2022-09-21T11:28:07.107Z,101940.84
2022-09-21T11:31:05.784Z,101943.41
2022-09-21T11:33:44.026Z,101939.88
2022-09-21T11:36:34.699Z,101934.56
2022-09-21T11:39:22.796Z,101936.28
2022-09-21T11:41:49.931Z,101933.66
2022-09-21T11:44:56.821Z,101922.31
2022-09-21T11:47:42.111Z,101922.31
2022-09-21T11:50:33.174Z,101918.81
2022-09-21T11:53:22.638Z,101917.00
2022-09-21T11:56:34.225Z,101925.69
2022-09-21T11:59:24.318Z,101925.69
2022-09-21T12:01:55.010Z,101917.75
2022-09-21T12:04:43.205Z,101915.13
2022-09-21T12:07:30.156Z,101917.75
2022-09-21T12:09:59.578Z,101916.00
2022-09-21T12:12:48.372Z,101910.72
2022-09-21T12:15:39.077Z,101909.81
2022-09-21T12:18:25.819Z,101912.38
2022-09-21T12:21:23.043Z,101909.81
2022-09-21T12:23:56.866Z,101908.94
2022-09-21T12:26:27.922Z,101903.63
2022-09-21T12:29:12.418Z,101904.41
2022-09-21T12:31:45.237Z,101910.53
2022-09-21T12:34:18.485Z,101907.06
2022-09-21T12:36:51.268Z,101899.22
2022-09-21T12:39:47.259Z,101893.97
2022-09-21T12:42:33.746Z,101886.06
2022-09-21T12:45:06.774Z,101888.31
2022-09-21T12:47:36.076Z,101882.59
2022-09-21T12:50:15.517Z,101889.91
2022-09-21T12:52:43.392Z,101879.22
2022-09-21T12:55:35.315Z,101888.66
2022-09-21T12:58:26.084Z,101884.50
2022-09-21T13:01:01.734Z,101880.06
2022-09-21T13:03:42.897Z,101881.34
2022-09-21T13:06:31.170Z,101878.03
2022-09-21T13:09:03.325Z,101865.53
2022-09-21T13:11:33.365Z,101875.00
2022-09-21T13:14:04.436Z,101870.78
2022-09-21T13:16:38.494Z,101872.63
2022-09-21T13:19:21.651Z,101862.31
2022-09-21T13:22:16.000Z,101859.78
2022-09-21T13:24:45.402Z,101862.66
2022-09-21T13:27:13.743Z,101863.84
2022-09-21T13:29:41.670Z,101864.19
2022-09-21T13:32:11.067Z,101860.91
2022-09-21T13:34:38.428Z,101861.97
2022-09-21T13:37:14.330Z,101856.75
2022-09-21T13:39:45.729Z,101848.78
2022-09-21T13:42:33.635Z,101846.22
2022-09-21T13:45:15.258Z,101842.78
2022-09-21T13:47:45.265Z,101843.72
2022-09-21T13:50:24.445Z,101844.69
2022-09-21T13:52:57.499Z,101842.13
2022-09-21T13:55:30.531Z,101841.34
2022-09-21T13:58:02.063Z,101842.31
2022-09-21T14:00:36.689Z,101846.75
2022-09-21T14:03:17.494Z,101838.94
2022-09-21T14:05:50.772Z,101832.03
2022-09-21T14:08:17.083Z,101831.19
2022-09-21T14:10:58.931Z,101826.84
2022-09-21T14:13:33.990Z,101823.38
2022-09-21T14:16:34.708Z,101831.22
2022-09-21T14:19:03.161Z,101835.66
2022-09-21T14:21:29.853Z,101829.59
2022-09-21T14:24:19.141Z,101828.72
2022-09-21T14:26:45.481Z,101824.31
2022-09-21T14:29:34.830Z,101816.41
2022-09-21T14:32:04.280Z,101813.72
2022-09-21T14:34:36.717Z,101818.88
2022-09-21T14:37:24.350Z,101815.16
2022-09-21T14:39:53.035Z,101813.88
2022-09-21T14:42:28.122Z,101811.72
2022-09-21T14:45:03.814Z,101804.44
2022-09-21T14:47:53.600Z,101804.38
2022-09-21T14:50:42.181Z,101799.97
2022-09-21T14:53:29.226Z,101801.34
2022-09-21T14:56:14.224Z,101795.09
2022-09-21T14:59:19.134Z,101794.34
2022-09-21T15:02:02.453Z,101788.22
2022-09-21T15:04:50.214Z,101784.84
2022-09-21T15:07:55.559Z,101778.66
2022-09-21T15:10:49.682Z,101779.31
2022-09-21T15:13:32.441Z,101778.44
2022-09-21T15:16:17.688Z,101772.31
2022-09-21T15:18:51.076Z,101787.66
2022-09-21T15:21:29.307Z,101772.25
2022-09-21T15:23:56.654Z,101774.28
2022-09-21T15:26:29.185Z,101777.06
2022-09-21T15:29:09.375Z,101765.84
2022-09-21T15:31:41.895Z,101767.53
2022-09-21T15:34:10.811Z,101757.75
2022-09-21T15:36:44.372Z,101761.34
2022-09-21T15:39:31.877Z,101769.38
2022-09-21T15:42:10.505Z,101753.72
2022-09-21T15:44:39.289Z,101758.13
2022-09-21T15:47:12.707Z,101755.47
2022-09-21T15:49:40.138Z,101758.03
2022-09-21T15:52:23.263Z,101759.78
2022-09-21T15:55:05.032Z,101752.81
2022-09-21T15:57:40.482Z,101756.38
2022-09-21T16:00:22.241Z,101754.59
2022-09-21T16:03:04.331Z,101751.97
2022-09-21T16:05:46.930Z,101749.38
2022-09-21T16:08:28.581Z,101750.28
2022-09-21T16:11:14.777Z,101746.84
2022-09-21T16:14:01.368Z,101754.81
2022-09-21T16:16:28.084Z,101750.47
2022-09-21T16:18:57.028Z,101750.47
2022-09-21T16:21:34.737Z,101745.22
2022-09-21T16:24:13.108Z,101747.91
2022-09-21T16:26:41.057Z,101750.59
2022-09-21T16:29:23.948Z,101749.75
2022-09-21T16:31:51.413Z,101751.47
2022-09-21T16:34:22.459Z,101755.91
2022-09-21T16:36:51.395Z,101755.94
2022-09-21T16:39:19.071Z,101754.22
2022-09-21T16:41:56.065Z,101751.56
2022-09-21T16:46:27.084Z,101768.25
2022-09-21T16:48:54.985Z,101758.66
2022-09-21T16:51:25.567Z,101765.66
2022-09-21T16:53:52.220Z,101759.59
2022-09-21T16:56:18.971Z,101767.50
2022-09-21T16:58:46.100Z,101765.81
2022-09-21T17:01:15.415Z,101761.47
2022-09-21T17:03:42.483Z,101759.69
2022-09-21T17:06:21.501Z,101762.25
2022-09-21T17:08:49.532Z,101759.59
2022-09-21T17:11:20.216Z,101756.88
2022-09-21T17:13:48.247Z,101756.94
2022-09-21T17:16:18.020Z,101758.78
2022-09-21T17:18:51.918Z,101759.69
2022-09-21T17:21:18.483Z,101770.25
2022-09-21T17:23:45.435Z,101766.75
2022-09-21T17:26:21.278Z,101766.81
2022-09-21T17:28:48.263Z,101769.47
2022-09-21T17:31:19.064Z,101773.97
2022-09-21T17:33:50.318Z,101770.47
2022-09-21T17:36:18.445Z,101765.28
2022-09-21T17:38:45.903Z,101781.94
2022-09-21T17:41:29.603Z,101774.13
2022-09-21T17:44:48.933Z,101770.75
2022-09-21T17:47:20.259Z,101770.84
2022-09-21T17:49:47.330Z,101774.41
2022-09-21T17:52:38.185Z,101783.22
2022-09-21T17:55:08.379Z,101778.00
2022-09-21T17:57:41.026Z,101778.03
2022-09-21T18:00:19.421Z,101785.06
2022-09-21T18:02:46.628Z,101779.91
2022-09-21T18:05:30.200Z,101786.91
2022-09-21T18:07:57.269Z,101789.59
2022-09-21T18:10:27.271Z,101786.97
2022-09-21T18:13:14.238Z,101780.00
2022-09-21T18:16:10.292Z,101785.22
2022-09-21T18:18:46.875Z,101788.78
2022-09-21T18:21:19.420Z,101789.69
2022-09-21T18:24:16.993Z,101796.72
2022-09-21T18:26:44.095Z,101787.09
2022-09-21T18:29:40.827Z,101795.84
2022-09-21T18:32:28.479Z,101797.59
2022-09-21T18:35:03.897Z,101793.25
2022-09-21T18:37:48.935Z,101796.75
2022-09-21T18:40:24.895Z,101795.91
2022-09-21T18:43:00.532Z,101792.44
2022-09-21T18:45:37.464Z,101796.81
2022-09-21T18:48:35.055Z,101793.41
2022-09-21T18:51:20.342Z,101793.41
2022-09-21T18:53:49.143Z,101799.53
2022-09-21T18:56:16.681Z,101804.78
2022-09-21T18:58:43.448Z,101792.59
2022-09-21T19:01:12.747Z,101807.44
2022-09-21T19:03:40.642Z,101803.97
2022-09-21T19:06:32.579Z,101804.81
2022-09-21T19:09:25.520Z,101805.72
2022-09-21T19:12:10.449Z,101797.84
2022-09-21T19:14:53.570Z,101801.31
2022-09-21T19:17:44.358Z,101796.09
2022-09-21T19:20:59.123Z,101801.34
2022-09-21T19:23:53.446Z,101800.47
2022-09-21T19:26:25.691Z,101800.47
2022-09-21T19:28:58.289Z,101800.47
2022-09-21T19:31:24.920Z,101792.63
2022-09-21T19:33:51.786Z,101803.09
2022-09-21T19:36:19.367Z,101802.25
2022-09-21T19:38:46.122Z,101799.66
2022-09-21T19:41:41.815Z,101799.66
2022-09-21T19:44:15.201Z,101803.16
2022-09-21T19:46:50.951Z,101801.41
2022-09-21T19:49:19.949Z,101801.41
2022-09-21T19:51:51.747Z,101804.03
2022-09-21T19:54:39.767Z,101800.56
2022-09-21T19:57:40.908Z,101801.44
2022-09-21T20:00:13.749Z,101799.69
2022-09-21T20:03:11.025Z,101794.47
2022-09-21T20:06:10.074Z,101797.94
2022-09-21T20:08:46.104Z,101788.31
2022-09-21T20:11:34.750Z,101791.81
2022-09-21T20:14:36.330Z,101800.56
2022-09-21T20:17:09.823Z,101795.28
2022-09-21T20:19:44.600Z,101799.66
2022-09-21T20:22:16.635Z,101797.91
2022-09-21T20:25:04.516Z,101804.03
2022-09-21T20:27:48.337Z,101802.28
2022-09-21T20:30:17.262Z,101808.38
2022-09-21T20:32:46.187Z,101800.53
2022-09-21T20:35:19.518Z,101806.63
2022-09-21T20:37:46.497Z,101799.63
2022-09-21T20:40:14.495Z,101802.25
2022-09-21T20:42:41.359Z,101806.59
2022-09-21T20:45:09.866Z,101800.53
2022-09-21T20:47:36.518Z,101798.75
2022-09-21T20:50:03.581Z,101797.00
2022-09-21T20:52:30.269Z,101799.63
2022-09-21T20:54:56.677Z,101799.63
2022-09-21T20:57:23.284Z,101785.69
2022-09-21T20:59:49.699Z,101790.91
2022-09-21T21:02:16.699Z,101793.50
2022-09-21T21:04:43.120Z,101791.75
2022-09-21T21:07:10.113Z,101791.75
2022-09-21T21:09:36.592Z,101779.53
2022-09-21T21:12:03.179Z,101791.75
2022-09-21T21:14:29.896Z,101785.66
2022-09-21T21:16:56.442Z,101787.38
2022-09-21T21:19:23.294Z,101796.09
2022-09-21T21:21:49.712Z,101792.59
2022-09-21T21:24:35.278Z,101789.13
2022-09-21T21:27:03.233Z,101789.97
2022-09-21T21:29:30.781Z,101790.84
2022-09-21T21:31:57.333Z,101782.09
2022-09-21T21:34:23.815Z,101785.59
2022-09-21T21:36:50.247Z,101790.81
2022-09-21T21:39:16.668Z,101787.34
2022-09-21T21:41:43.599Z,101785.59
2022-09-21T21:44:11.451Z,101785.56
2022-09-21T21:46:38.062Z,101793.41
2022-09-21T21:49:04.904Z,101782.97
2022-09-21T21:51:31.588Z,101789.91
2022-09-21T21:53:58.113Z,101786.44
2022-09-21T21:56:26.520Z,101776.84
2022-09-21T21:58:54.300Z,101782.94
2022-09-21T22:01:26.695Z,101773.34
2022-09-21T22:03:55.484Z,101777.69
2022-09-21T22:06:22.568Z,101774.25
2022-09-21T22:08:49.736Z,101770.72
2022-09-21T22:11:17.739Z,101771.59
2022-09-21T22:13:45.639Z,101766.38
2022-09-21T22:16:17.848Z,101769.00
2022-09-21T22:18:46.181Z,101759.41
2022-09-21T22:21:26.130Z,101771.59
2022-09-21T22:23:54.327Z,101767.28
2022-09-21T22:26:22.183Z,101766.38
2022-09-21T22:28:54.581Z,101764.63
2022-09-21T22:31:26.392Z,101765.50
2022-09-21T22:33:53.942Z,101768.13
2022-09-21T22:36:22.974Z,101770.72
2022-09-21T22:38:50.039Z,101769.84
2022-09-21T22:41:18.963Z,101767.22
2022-09-21T22:43:46.896Z,101775.94
2022-09-21T22:46:14.150Z,101769.84
2022-09-21T22:48:40.571Z,101770.66
2022-09-21T22:51:07.277Z,101766.34
2022-09-21T22:53:33.859Z,101770.72
2022-09-21T22:56:10.552Z,101762.88
2022-09-21T22:58:39.111Z,101764.56
2022-09-21T23:01:38.624Z,101766.34
2022-09-21T23:04:10.861Z,101768.06
2022-09-21T23:06:39.766Z,101759.34
2022-09-21T23:09:09.408Z,101762.84
2022-09-21T23:11:47.133Z,101762.84
2022-09-21T23:14:15.559Z,101761.97
2022-09-21T23:16:43.177Z,101768.94
2022-09-21T23:19:16.044Z,101767.19
2022-09-21T23:21:52.763Z,101759.34
2022-09-21T23:24:19.806Z,101755.84
2022-09-21T23:26:47.504Z,101761.97
2022-09-21T23:29:15.530Z,101757.56
2022-09-21T23:31:44.980Z,101755.78
2022-09-21T23:34:12.635Z,101763.63
2022-09-21T23:36:40.333Z,101762.75
2022-09-21T23:39:08.046Z,101758.41
2022-09-21T23:41:36.463Z,101764.50
2022-09-21T23:44:04.394Z,101759.28
2022-09-21T23:46:32.927Z,101769.72
2022-09-21T23:49:00.299Z,101772.34
2022-09-21T23:51:27.455Z,101769.72
2022-09-21T23:53:53.947Z,101765.34
2022-09-21T23:56:22.733Z,101765.34
2022-09-21T23:58:49.825Z,101768.81
